Time;durP1;ratioP1;P1;durP2;ratioP2;P2;SDS_P1;SDS_P2;PMS_P1;PMS_P2;Temp;Humidity;BMP_temperature;BMP_pressure;BME280_temperature;BME280_humidity;BME280_pressure;Samples;Min_cycle;Max_cycle;Signal;HPM_P1;HPM_P2
2022/08/20 00:01:40;;;;;;;19.70;17.40;;;;;;;;;;5086617;28;24408;-47
2022/08/20 00:04:05;;;;;;;19.10;17.20;;;;;;;;;;5086485;28;24503;-47
2022/08/20 00:06:32;;;;;;;19.35;15.80;;;;;;;;;;5086878;28;24471;-47
2022/08/20 00:08:57;;;;;;;19.70;17.60;;;;;;;;;;5086393;28;24474;-45
2022/08/20 00:11:24;;;;;;;17.13;15.30;;;;;;;;;;5086238;28;24477;-45
2022/08/20 00:13:50;;;;;;;19.47;16.97;;;;;;;;;;5086563;28;24422;-45
2022/08/20 00:16:16;;;;;;;17.02;15.32;;;;;;;;;;5086409;28;25034;-45
2022/08/20 00:18:42;;;;;;;20.30;18.15;;;;;;;;;;5086344;28;24494;-45
2022/08/20 00:21:08;;;;;;;17.05;15.27;;;;;;;;;;5086164;28;24451;-45
2022/08/20 00:23:37;;;;;;;19.63;17.23;;;;;;;;;;5086523;28;24434;-45
2022/08/20 00:26:03;;;;;;;19.23;17.13;;;;;;;;;;5086441;28;24414;-45
2022/08/20 00:28:28;;;;;;;19.43;16.70;;;;;;;;;;5086510;28;24748;-45
2022/08/20 00:30:53;;;;;;;17.55;15.63;;;;;;;;;;5086241;28;24390;-45
2022/08/20 00:33:19;;;;;;;18.70;16.35;;;;;;;;;;5086605;28;24412;-45
2022/08/20 00:35:47;;;;;;;17.73;15.57;;;;;;;;;;5086217;28;24431;-45
2022/08/20 00:38:13;;;;;;;19.50;15.93;;;;;;;;;;5086465;28;24398;-45
2022/08/20 00:40:43;;;;;;;17.45;15.65;;;;;;;;;;5086248;28;24413;-45
2022/08/20 00:43:24;;;;;;;17.08;15.38;;;;;;;;;;5086175;28;24468;-45
2022/08/20 00:45:49;;;;;;;18.80;15.90;;;;;;;;;;5086098;28;24410;-46
2022/08/20 00:48:15;;;;;;;19.30;16.00;;;;;;;;;;5086285;28;24448;-46
2022/08/20 00:50:40;;;;;;;17.35;15.55;;;;;;;;;;5086130;28;24418;-46
2022/08/20 00:53:07;;;;;;;17.70;15.90;;;;;;;;;;5088049;28;24505;-46
2022/08/20 00:55:33;;;;;;;19.00;16.83;;;;;;;;;;5090312;28;24402;-47
2022/08/20 00:58:01;;;;;;;21.73;18.70;;;;;;;;;;5071956;28;24945;-46
2022/08/20 01:00:28;;;;;;;21.67;18.58;;;;;;;;;;5069847;28;24422;-46
2022/08/20 01:02:54;;;;;;;21.25;17.98;;;;;;;;;;5069538;28;24456;-46
2022/08/20 01:05:22;;;;;;;21.30;19.00;;;;;;;;;;5069968;28;24406;-46
2022/08/20 01:07:48;;;;;;;24.27;20.30;;;;;;;;;;5069540;28;24544;-46
2022/08/20 01:10:15;;;;;;;22.70;18.83;;;;;;;;;;5069746;28;24403;-46
2022/08/20 01:12:42;;;;;;;21.65;18.98;;;;;;;;;;5069277;28;24515;-46
2022/08/20 01:15:10;;;;;;;25.43;20.50;;;;;;;;;;5069504;28;24464;-46
2022/08/20 01:17:38;;;;;;;28.33;23.27;;;;;;;;;;5069589;28;24418;-47
2022/08/20 01:20:09;;;;;;;23.13;19.15;;;;;;;;;;5069253;28;24513;-46
2022/08/20 01:25:33;;;;;;;20.70;18.50;;;;;;;;;;5089434;28;24445;-46
2022/08/20 01:27:58;;;;;;;21.35;17.92;;;;;;;;;;5070585;28;24862;-46
2022/08/20 01:30:25;;;;;;;25.17;20.57;;;;;;;;;;5089582;28;24389;-46
2022/08/20 01:32:50;;;;;;;22.92;19.20;;;;;;;;;;5089547;28;24394;-46
2022/08/20 01:35:22;;;;;;;23.17;19.77;;;;;;;;;;5089295;28;24455;-46
2022/08/20 01:37:47;;;;;;;25.07;20.77;;;;;;;;;;5089243;28;24957;-46
2022/08/20 01:40:15;;;;;;;22.57;19.20;;;;;;;;;;5088945;28;24479;-46
2022/08/20 01:42:43;;;;;;;28.53;20.30;;;;;;;;;;5089065;28;24382;-46
2022/08/20 01:45:08;;;;;;;24.95;22.02;;;;;;;;;;5089191;28;24402;-46
2022/08/20 01:47:34;;;;;;;23.67;20.43;;;;;;;;;;5089446;28;24386;-46
2022/08/20 01:50:00;;;;;;;22.73;19.80;;;;;;;;;;5089030;28;25059;-46
2022/08/20 01:52:29;;;;;;;24.38;20.83;;;;;;;;;;5088567;28;24451;-46
2022/08/20 01:54:55;;;;;;;23.48;20.05;;;;;;;;;;5088883;28;24403;-46
2022/08/20 01:57:24;;;;;;;27.55;22.60;;;;;;;;;;5088998;28;24413;-47
2022/08/20 01:59:49;;;;;;;30.02;24.95;;;;;;;;;;5089253;28;24795;-46
2022/08/20 02:02:15;;;;;;;25.73;21.15;;;;;;;;;;5088317;28;24398;-47
2022/08/20 02:04:40;;;;;;;28.25;23.13;;;;;;;;;;5088027;28;24390;-47
2022/08/20 02:07:06;;;;;;;26.10;22.00;;;;;;;;;;5088702;28;24448;-47
2022/08/20 02:09:33;;;;;;;26.75;21.70;;;;;;;;;;5088799;28;24409;-47
2022/08/20 02:11:59;;;;;;;29.92;23.40;;;;;;;;;;5088492;28;24386;-47
2022/08/20 02:14:25;;;;;;;27.83;22.93;;;;;;;;;;5088843;28;24585;-50
2022/08/20 02:16:50;;;;;;;28.42;23.80;;;;;;;;;;5088673;28;24428;-46
2022/08/20 02:19:20;;;;;;;31.87;25.70;;;;;;;;;;5088526;28;24753;-47
2022/08/20 02:21:47;;;;;;;25.33;21.90;;;;;;;;;;5088402;28;24402;-47
2022/08/20 02:24:13;;;;;;;30.00;23.40;;;;;;;;;;5088068;28;24524;-47
2022/08/20 02:26:38;;;;;;;34.00;25.80;;;;;;;;;;5088419;28;24422;-46
2022/08/20 02:29:05;;;;;;;30.97;24.90;;;;;;;;;;5088661;28;24402;-47
2022/08/20 02:31:30;;;;;;;30.63;24.52;;;;;;;;;;5088315;28;24471;-46
2022/08/20 02:33:55;;;;;;;33.90;26.08;;;;;;;;;;5088269;28;24448;-46
2022/08/20 02:36:21;;;;;;;33.28;26.77;;;;;;;;;;5088434;28;24394;-46
2022/08/20 02:38:46;;;;;;;32.90;25.33;;;;;;;;;;5088015;28;24489;-45
2022/08/20 02:41:12;;;;;;;32.03;25.57;;;;;;;;;;5088020;28;24390;-45
2022/08/20 02:43:37;;;;;;;32.08;25.15;;;;;;;;;;5088250;28;25026;-46
2022/08/20 02:46:03;;;;;;;34.10;25.63;;;;;;;;;;5088055;28;24831;-47
2022/08/20 02:48:28;;;;;;;33.70;25.53;;;;;;;;;;5086710;28;24477;-47
2022/08/20 02:50:56;;;;;;;35.47;27.45;;;;;;;;;;5084607;28;24989;-46
2022/08/20 02:53:21;;;;;;;32.17;26.13;;;;;;;;;;5085871;28;24403;-48
2022/08/20 02:55:46;;;;;;;33.63;26.45;;;;;;;;;;5088178;28;24394;-47
2022/08/20 02:58:12;;;;;;;33.30;24.83;;;;;;;;;;5068020;28;24407;-46
2022/08/20 03:00:37;;;;;;;34.10;26.23;;;;;;;;;;5067873;28;24417;-47
2022/08/20 03:03:02;;;;;;;34.40;26.30;;;;;;;;;;5067504;28;24442;-47
2022/08/20 03:05:27;;;;;;;33.90;26.63;;;;;;;;;;5067110;28;24426;-46
2022/08/20 03:07:55;;;;;;;35.35;26.88;;;;;;;;;;5067389;28;24425;-46
2022/08/20 03:10:21;;;;;;;33.95;26.27;;;;;;;;;;5067492;28;24493;-47
2022/08/20 03:12:46;;;;;;;36.42;27.20;;;;;;;;;;5067437;28;24395;-47
2022/08/20 03:15:11;;;;;;;37.25;27.73;;;;;;;;;;5066973;28;24383;-46
2022/08/20 03:17:37;;;;;;;38.10;28.20;;;;;;;;;;5067403;28;24850;-46
2022/08/20 03:20:06;;;;;;;32.90;25.00;;;;;;;;;;5066913;28;24403;-47
2022/08/20 03:22:31;;;;;;;34.08;25.48;;;;;;;;;;5067589;28;24478;-46
2022/08/20 03:24:56;;;;;;;30.90;24.27;;;;;;;;;;5087446;28;24957;-47
2022/08/20 03:27:21;;;;;;;31.80;24.23;;;;;;;;;;5087213;28;24982;-46
2022/08/20 03:29:47;;;;;;;31.13;25.42;;;;;;;;;;5087369;28;24501;-47
2022/08/20 03:32:13;;;;;;;33.35;26.17;;;;;;;;;;5086840;28;24390;-46
2022/08/20 03:34:38;;;;;;;32.97;25.73;;;;;;;;;;5087041;28;24386;-46
2022/08/20 03:37:03;;;;;;;34.78;25.17;;;;;;;;;;5087457;28;24920;-46
2022/08/20 03:39:28;;;;;;;32.78;25.23;;;;;;;;;;5087132;28;24465;-46
2022/08/20 03:41:54;;;;;;;29.90;23.70;;;;;;;;;;5087071;28;24431;-46
2022/08/20 03:44:19;;;;;;;32.33;24.30;;;;;;;;;;5086928;28;24397;-45
2022/08/20 03:46:44;;;;;;;35.55;26.25;;;;;;;;;;5087079;28;24414;-45
2022/08/20 03:49:09;;;;;;;30.33;23.57;;;;;;;;;;5086738;28;24430;-46
2022/08/20 03:51:35;;;;;;;30.50;23.90;;;;;;;;;;5087226;28;24389;-46
2022/08/20 03:54:00;;;;;;;29.53;22.50;;;;;;;;;;5086697;28;24859;-45
2022/08/20 03:56:25;;;;;;;31.15;23.73;;;;;;;;;;5086607;28;24459;-47
2022/08/20 03:58:50;;;;;;;29.10;21.97;;;;;;;;;;5087231;28;24496;-46
2022/08/20 04:01:16;;;;;;;29.53;21.97;;;;;;;;;;5086681;28;24486;-46
2022/08/20 04:03:41;;;;;;;30.60;22.80;;;;;;;;;;5086611;28;24916;-46
2022/08/20 04:06:06;;;;;;;27.13;20.88;;;;;;;;;;5086703;28;24422;-47
2022/08/20 04:08:31;;;;;;;24.20;19.40;;;;;;;;;;5068398;28;24413;-46
2022/08/20 04:10:58;;;;;;;23.48;19.40;;;;;;;;;;5086676;28;24398;-46
2022/08/20 04:13:24;;;;;;;21.45;17.80;;;;;;;;;;5086724;28;24468;-46
2022/08/20 04:15:52;;;;;;;24.52;18.73;;;;;;;;;;5086894;28;25151;-46
2022/08/20 04:18:19;;;;;;;24.60;18.85;;;;;;;;;;5086194;28;24410;-45
2022/08/20 04:20:45;;;;;;;22.15;16.77;;;;;;;;;;5086515;28;24397;-46
2022/08/20 04:23:10;;;;;;;21.65;17.33;;;;;;;;;;5086283;28;24426;-46
2022/08/20 04:25:39;;;;;;;18.48;15.10;;;;;;;;;;5086996;28;24413;-46
2022/08/20 04:28:05;;;;;;;17.13;15.13;;;;;;;;;;5088472;28;24393;-45
2022/08/20 04:30:31;;;;;;;17.35;14.98;;;;;;;;;;5090498;28;24989;-46
2022/08/20 04:32:58;;;;;;;13.57;12.00;;;;;;;;;;5090631;28;24394;-45
2022/08/20 04:35:24;;;;;;;14.00;12.40;;;;;;;;;;5090756;28;24951;-46
2022/08/20 04:37:55;;;;;;;13.97;12.47;;;;;;;;;;5090777;28;24394;-46
2022/08/20 04:43:04;;;;;;;11.93;10.18;;;;;;;;;;5090178;28;24443;-46
2022/08/20 04:45:30;;;;;;;11.03;9.93;;;;;;;;;;5090235;28;24882;-46
2022/08/20 04:47:55;;;;;;;9.70;8.50;;;;;;;;;;5090157;28;24915;-46
2022/08/20 04:50:21;;;;;;;11.40;9.63;;;;;;;;;;5090477;28;24458;-46
2022/08/20 04:52:48;;;;;;;9.55;8.60;;;;;;;;;;5090278;28;24389;-46
2022/08/20 04:55:15;;;;;;;9.50;8.50;;;;;;;;;;5089874;28;24403;-45
2022/08/20 04:57:40;;;;;;;10.65;8.82;;;;;;;;;;5074900;28;24464;-46
2022/08/20 05:00:08;;;;;;;7.97;7.18;;;;;;;;;;5069887;28;24913;-47
2022/08/20 05:02:34;;;;;;;9.60;8.27;;;;;;;;;;5069748;28;24403;-46
2022/08/20 05:04:59;;;;;;;8.00;7.20;;;;;;;;;;5069711;28;24391;-46
2022/08/20 05:07:24;;;;;;;7.03;6.43;;;;;;;;;;5069719;28;24438;-46
2022/08/20 05:09:50;;;;;;;8.60;7.70;;;;;;;;;;5069680;28;24413;-47
2022/08/20 05:12:16;;;;;;;7.50;6.80;;;;;;;;;;5069358;28;24717;-47
2022/08/20 05:14:42;;;;;;;6.80;6.10;;;;;;;;;;5069446;28;24447;-47
2022/08/20 05:17:07;;;;;;;6.43;5.83;;;;;;;;;;5070054;28;24462;-47
2022/08/20 05:19:33;;;;;;;6.15;5.65;;;;;;;;;;5069252;28;25228;-46
2022/08/20 05:21:58;;;;;;;6.60;5.57;;;;;;;;;;5069612;28;24844;-46
2022/08/20 05:24:24;;;;;;;6.67;6.07;;;;;;;;;;5085687;28;24410;-47
2022/08/20 05:26:49;;;;;;;7.00;6.30;;;;;;;;;;5089459;28;24456;-46
2022/08/20 05:29:14;;;;;;;9.60;8.53;;;;;;;;;;5089135;28;24526;-46
2022/08/20 05:31:40;;;;;;;9.53;8.53;;;;;;;;;;5089740;28;24752;-46
2022/08/20 05:34:08;;;;;;;8.77;7.90;;;;;;;;;;5089642;28;24427;-47
2022/08/20 05:36:33;;;;;;;10.23;8.88;;;;;;;;;;5089163;28;24420;-47
2022/08/20 05:38:58;;;;;;;10.70;9.60;;;;;;;;;;5087719;28;24390;-46
2022/08/20 05:41:24;;;;;;;10.37;9.37;;;;;;;;;;5089188;28;24763;-47
2022/08/20 05:43:49;;;;;;;12.18;10.82;;;;;;;;;;5089209;28;24455;-47
2022/08/20 05:46:15;;;;;;;12.80;11.40;;;;;;;;;;5089041;28;24521;-47
2022/08/20 05:48:40;;;;;;;14.50;12.52;;;;;;;;;;5088675;28;24749;-47
2022/08/20 05:51:07;;;;;;;12.10;10.77;;;;;;;;;;5089103;28;24389;-47
2022/08/20 05:53:33;;;;;;;13.88;12.18;;;;;;;;;;5088688;28;24443;-47
2022/08/20 05:55:59;;;;;;;14.85;12.77;;;;;;;;;;5088967;28;24413;-47
2022/08/20 05:58:28;;;;;;;14.20;11.80;;;;;;;;;;5088823;28;24497;-48
2022/08/20 06:00:53;;;;;;;14.48;12.18;;;;;;;;;;5089025;28;24979;-47
2022/08/20 06:06:03;;;;;;;13.70;12.30;;;;;;;;;;5089006;28;25023;-49
2022/08/20 06:08:29;;;;;;;15.70;12.50;;;;;;;;;;5088019;28;24512;-48
2022/08/20 06:10:54;;;;;;;15.20;12.70;;;;;;;;;;5088739;28;24437;-47
2022/08/20 06:13:19;;;;;;;15.87;13.70;;;;;;;;;;5088663;28;24477;-47
2022/08/20 06:15:44;;;;;;;14.70;12.48;;;;;;;;;;5088826;28;25249;-47
2022/08/20 06:18:10;;;;;;;15.63;12.90;;;;;;;;;;5088881;28;24389;-47
2022/08/20 06:20:36;;;;;;;15.43;12.98;;;;;;;;;;5088236;28;24942;-47
2022/08/20 06:23:02;;;;;;;16.90;14.23;;;;;;;;;;5088350;28;24888;-46
2022/08/20 06:25:28;;;;;;;16.90;14.10;;;;;;;;;;5088316;28;24496;-47
2022/08/20 06:27:53;;;;;;;21.85;16.08;;;;;;;;;;5088863;28;24760;-47
2022/08/20 06:30:18;;;;;;;19.87;15.50;;;;;;;;;;5088121;28;24489;-48
2022/08/20 06:32:44;;;;;;;20.00;16.77;;;;;;;;;;5088461;28;24441;-46
2022/08/20 06:35:10;;;;;;;22.63;17.15;;;;;;;;;;5088409;28;24459;-47
2022/08/20 06:37:36;;;;;;;19.77;16.55;;;;;;;;;;5088221;28;24398;-46
2022/08/20 06:40:10;;;;;;;24.45;19.25;;;;;;;;;;5088202;28;24395;-48
2022/08/20 06:42:35;;;;;;;22.70;17.80;;;;;;;;;;5087968;28;24406;-47
2022/08/20 06:45:03;;;;;;;22.47;17.90;;;;;;;;;;5088191;28;24753;-47
2022/08/20 06:47:30;;;;;;;20.10;16.77;;;;;;;;;;5088351;28;24443;-46
2022/08/20 06:49:55;;;;;;;23.00;17.80;;;;;;;;;;5086090;28;24417;-47
2022/08/20 06:52:21;;;;;;;19.73;15.87;;;;;;;;;;5087975;28;24914;-46
2022/08/20 06:54:46;;;;;;;20.83;16.80;;;;;;;;;;5087795;28;24402;-47
2022/08/20 06:57:11;;;;;;;22.95;18.02;;;;;;;;;;5074819;28;24435;-47
2022/08/20 06:59:36;;;;;;;25.05;20.50;;;;;;;;;;5067823;28;24886;-47
2022/08/20 07:02:02;;;;;;;24.80;20.40;;;;;;;;;;5067795;28;24627;-48
2022/08/20 07:04:27;;;;;;;24.27;19.90;;;;;;;;;;5067435;28;25026;-46
2022/08/20 07:06:53;;;;;;;29.30;22.90;;;;;;;;;;5067485;28;25235;-47
2022/08/20 07:09:19;;;;;;;26.93;21.70;;;;;;;;;;5067029;28;24418;-48
2022/08/20 07:11:44;;;;;;;33.85;23.55;;;;;;;;;;5067547;28;24453;-47
2022/08/20 07:14:10;;;;;;;26.77;21.55;;;;;;;;;;5066347;28;24410;-47
2022/08/20 07:16:35;;;;;;;28.63;22.88;;;;;;;;;;5067374;28;24430;-47
2022/08/20 07:19:01;;;;;;;30.93;23.47;;;;;;;;;;5066883;28;24383;-47
2022/08/20 07:21:26;;;;;;;30.43;23.30;;;;;;;;;;5067280;28;24395;-47
2022/08/20 07:23:51;;;;;;;28.88;23.13;;;;;;;;;;5078816;28;24418;-48
2022/08/20 07:26:17;;;;;;;28.63;23.00;;;;;;;;;;5087302;28;24481;-49
2022/08/20 07:28:42;;;;;;;26.63;21.80;;;;;;;;;;5087417;28;24416;-47
2022/08/20 07:33:51;;;;;;;30.10;22.63;;;;;;;;;;5087489;28;24389;-48
2022/08/20 07:36:17;;;;;;;29.43;23.50;;;;;;;;;;5086773;28;24410;-47
2022/08/20 07:38:45;;;;;;;26.03;21.20;;;;;;;;;;5086851;28;24413;-47
2022/08/20 07:41:12;;;;;;;28.15;21.42;;;;;;;;;;5087416;28;24474;-46
2022/08/20 07:43:38;;;;;;;28.83;23.45;;;;;;;;;;5086990;28;24387;-47
2022/08/20 07:46:07;;;;;;;28.27;23.08;;;;;;;;;;5087099;28;24405;-46
2022/08/20 07:48:33;;;;;;;30.45;23.77;;;;;;;;;;5086696;28;24394;-46
2022/08/20 07:50:59;;;;;;;30.10;24.17;;;;;;;;;;5086928;28;24448;-47
2022/08/20 07:53:25;;;;;;;28.02;23.30;;;;;;;;;;5086964;28;24415;-46
2022/08/20 07:55:50;;;;;;;29.30;23.27;;;;;;;;;;5086740;28;25045;-47
2022/08/20 07:58:17;;;;;;;31.23;24.27;;;;;;;;;;5086770;28;24478;-46
2022/08/20 08:00:42;;;;;;;32.13;23.92;;;;;;;;;;5086581;28;24410;-47
2022/08/20 08:03:08;;;;;;;30.10;23.70;;;;;;;;;;5086175;28;24987;-47
2022/08/20 08:05:34;;;;;;;35.80;26.83;;;;;;;;;;5086406;28;24448;-46
2022/08/20 08:07:59;;;;;;;34.17;25.70;;;;;;;;;;5086624;28;24772;-46
2022/08/20 08:10:25;;;;;;;34.87;26.63;;;;;;;;;;5084781;28;24403;-47
2022/08/20 08:12:53;;;;;;;35.33;26.30;;;;;;;;;;5084504;28;24398;-47
2022/08/20 08:15:21;;;;;;;30.13;24.33;;;;;;;;;;5086517;28;24959;-47
2022/08/20 08:17:48;;;;;;;30.85;24.90;;;;;;;;;;5086690;28;24449;-47
2022/08/20 08:20:13;;;;;;;30.25;23.92;;;;;;;;;;5086283;28;24456;-46
2022/08/20 08:22:41;;;;;;;31.60;24.58;;;;;;;;;;5086575;28;24486;-48
2022/08/20 08:25:07;;;;;;;36.90;26.80;;;;;;;;;;5086889;28;24911;-46
2022/08/20 08:27:33;;;;;;;34.85;27.45;;;;;;;;;;5086198;28;25139;-47
2022/08/20 08:29:58;;;;;;;36.95;26.90;;;;;;;;;;5086346;28;24931;-46
2022/08/20 08:32:24;;;;;;;34.03;26.63;;;;;;;;;;5086508;28;24466;-46
2022/08/20 08:34:49;;;;;;;33.47;27.10;;;;;;;;;;5086383;28;24434;-47
2022/08/20 08:37:14;;;;;;;35.30;27.50;;;;;;;;;;5086349;28;24504;-47
2022/08/20 08:39:39;;;;;;;37.20;28.13;;;;;;;;;;5086249;28;24485;-46
2022/08/20 08:42:14;;;;;;;36.78;29.17;;;;;;;;;;5086246;28;24813;-46
2022/08/20 08:44:40;;;;;;;34.85;29.38;;;;;;;;;;5086598;28;24382;-46
2022/08/20 08:47:26;;;;;;;31.13;26.70;;;;;;;;;;5086172;28;24439;-46
2022/08/20 08:49:51;;;;;;;32.83;27.63;;;;;;;;;;5085695;28;24560;-46
2022/08/20 08:52:19;;;;;;;32.60;27.13;;;;;;;;;;5086329;28;24920;-47
2022/08/20 08:54:50;;;;;;;31.40;25.92;;;;;;;;;;5085854;28;24410;-51
2022/08/20 08:57:15;;;;;;;33.30;26.98;;;;;;;;;;5072302;28;24464;-50
2022/08/20 08:59:43;;;;;;;33.93;27.07;;;;;;;;;;5063280;28;24434;-47
2022/08/20 09:02:16;;;;;;;36.22;28.48;;;;;;;;;;5066313;28;24474;-47
2022/08/20 09:04:41;;;;;;;32.33;26.77;;;;;;;;;;5065837;28;24429;-47
2022/08/20 09:07:10;;;;;;;34.88;29.33;;;;;;;;;;5066188;28;24429;-46
2022/08/20 09:09:37;;;;;;;29.30;24.50;;;;;;;;;;5064313;28;24501;-46
2022/08/20 09:12:07;;;;;;;30.50;26.83;;;;;;;;;;5065954;28;24441;-47
2022/08/20 09:14:32;;;;;;;33.87;29.30;;;;;;;;;;5067762;28;25295;-47
2022/08/20 09:16:58;;;;;;;32.53;27.70;;;;;;;;;;5069573;28;24514;-48
2022/08/20 09:19:23;;;;;;;30.93;26.27;;;;;;;;;;5069831;28;24768;-46
2022/08/20 09:21:48;;;;;;;35.97;28.40;;;;;;;;;;5067472;28;24784;-46
2022/08/20 09:24:13;;;;;;;36.83;30.10;;;;;;;;;;5083988;28;24768;-47
2022/08/20 09:26:38;;;;;;;33.90;27.87;;;;;;;;;;5089864;28;24497;-46
2022/08/20 09:29:03;;;;;;;34.80;28.90;;;;;;;;;;5089790;28;24417;-46
2022/08/20 09:31:29;;;;;;;34.47;27.33;;;;;;;;;;5089606;28;24993;-47
2022/08/20 09:33:54;;;;;;;35.90;30.33;;;;;;;;;;5089913;28;24993;-46
2022/08/20 09:36:19;;;;;;;34.80;28.90;;;;;;;;;;5089418;28;24535;-47
2022/08/20 09:38:44;;;;;;;36.35;30.25;;;;;;;;;;5089267;28;24398;-47
2022/08/20 09:41:09;;;;;;;32.50;25.77;;;;;;;;;;5089603;28;24465;-47
2022/08/20 09:43:35;;;;;;;33.23;29.30;;;;;;;;;;5089022;28;24949;-47
2022/08/20 09:46:00;;;;;;;33.35;27.45;;;;;;;;;;5089482;28;24399;-46
2022/08/20 09:48:25;;;;;;;30.33;27.02;;;;;;;;;;5089704;28;24402;-47
2022/08/20 09:50:50;;;;;;;33.40;28.27;;;;;;;;;;5088911;28;24402;-47
2022/08/20 09:53:16;;;;;;;32.60;27.47;;;;;;;;;;5088975;28;24449;-46
2022/08/20 09:55:43;;;;;;;32.80;27.50;;;;;;;;;;5088993;28;24406;-47
2022/08/20 09:58:15;;;;;;;34.53;28.70;;;;;;;;;;5089391;28;24660;-48
2022/08/20 10:00:40;;;;;;;36.78;28.65;;;;;;;;;;5087141;28;24779;-47
2022/08/20 10:03:05;;;;;;;32.40;26.70;;;;;;;;;;5088859;28;24951;-47
2022/08/20 10:05:30;;;;;;;33.70;27.27;;;;;;;;;;5088820;28;24398;-47
2022/08/20 10:07:56;;;;;;;42.00;31.45;;;;;;;;;;5088967;28;24801;-46
2022/08/20 10:10:21;;;;;;;31.27;26.70;;;;;;;;;;5088679;28;24418;-47
2022/08/20 10:12:46;;;;;;;35.90;29.23;;;;;;;;;;5088578;28;24393;-47
2022/08/20 10:15:12;;;;;;;35.50;28.80;;;;;;;;;;5088937;28;24429;-47
2022/08/20 10:17:38;;;;;;;38.30;29.30;;;;;;;;;;5088907;28;24411;-47
2022/08/20 10:20:04;;;;;;;32.93;27.17;;;;;;;;;;5088402;28;24495;-47
2022/08/20 10:22:31;;;;;;;34.20;27.80;;;;;;;;;;5088252;28;24407;-46
2022/08/20 10:24:56;;;;;;;34.90;28.70;;;;;;;;;;5087981;28;24853;-47
2022/08/20 10:27:21;;;;;;;37.63;28.45;;;;;;;;;;5088811;28;25149;-45
2022/08/20 10:29:47;;;;;;;40.37;31.33;;;;;;;;;;5088484;28;24455;-46
2022/08/20 10:32:14;;;;;;;35.77;28.93;;;;;;;;;;5088083;28;24401;-45
2022/08/20 10:34:40;;;;;;;36.92;29.50;;;;;;;;;;5088324;28;24967;-45
2022/08/20 10:37:05;;;;;;;41.67;30.87;;;;;;;;;;5088319;28;24529;-45
2022/08/20 10:39:30;;;;;;;37.77;29.70;;;;;;;;;;5088137;28;24751;-46
2022/08/20 10:41:55;;;;;;;36.08;29.65;;;;;;;;;;5087715;28;24460;-46
2022/08/20 10:44:20;;;;;;;39.93;30.87;;;;;;;;;;5088230;28;24397;-46
2022/08/20 10:46:46;;;;;;;41.78;30.73;;;;;;;;;;5088019;28;24971;-46
2022/08/20 10:49:11;;;;;;;37.78;29.80;;;;;;;;;;5088063;28;24394;-47
2022/08/20 10:51:36;;;;;;;36.15;30.38;;;;;;;;;;5087259;28;24402;-47
2022/08/20 10:54:01;;;;;;;40.17;31.95;;;;;;;;;;5087752;28;24975;-47
2022/08/20 10:56:26;;;;;;;36.70;30.00;;;;;;;;;;5080979;28;24468;-47
2022/08/20 10:58:51;;;;;;;37.17;30.13;;;;;;;;;;5067426;28;24972;-46
2022/08/20 11:01:17;;;;;;;35.33;29.50;;;;;;;;;;5067517;28;24922;-48
2022/08/20 11:03:42;;;;;;;37.87;30.17;;;;;;;;;;5067532;28;24378;-47
2022/08/20 11:06:07;;;;;;;37.58;30.33;;;;;;;;;;5067738;28;24447;-47
2022/08/20 11:08:32;;;;;;;37.27;30.13;;;;;;;;;;5067186;28;24761;-48
2022/08/20 11:10:57;;;;;;;37.70;29.93;;;;;;;;;;5066987;28;24437;-46
2022/08/20 11:13:22;;;;;;;38.15;31.10;;;;;;;;;;5067365;28;24405;-46
2022/08/20 11:15:47;;;;;;;41.63;34.03;;;;;;;;;;5066954;28;24419;-47
2022/08/20 11:18:13;;;;;;;35.25;28.98;;;;;;;;;;5067066;28;24764;-46
2022/08/20 11:20:38;;;;;;;41.80;32.77;;;;;;;;;;5066834;28;24413;-46
2022/08/20 11:23:03;;;;;;;33.28;28.10;;;;;;;;;;5071847;28;24405;-46
2022/08/20 11:25:28;;;;;;;41.50;33.10;;;;;;;;;;5087146;28;24430;-46
2022/08/20 11:27:55;;;;;;;37.17;28.30;;;;;;;;;;5087114;28;24382;-47
2022/08/20 11:30:22;;;;;;;41.47;33.20;;;;;;;;;;5086979;28;24972;-48
2022/08/20 11:32:47;;;;;;;38.88;31.10;;;;;;;;;;5086886;28;24405;-48
2022/08/20 11:35:12;;;;;;;36.10;28.90;;;;;;;;;;5087289;28;24378;-49
2022/08/20 11:37:39;;;;;;;41.83;33.37;;;;;;;;;;5087156;28;24482;-47
2022/08/20 11:40:04;;;;;;;42.05;33.67;;;;;;;;;;5086919;28;24951;-47
2022/08/20 11:42:30;;;;;;;39.65;30.20;;;;;;;;;;5086622;28;24425;-47
2022/08/20 11:44:55;;;;;;;42.30;31.97;;;;;;;;;;5086995;28;24470;-47
2022/08/20 11:47:21;;;;;;;39.08;30.60;;;;;;;;;;5087114;28;24406;-47
2022/08/20 11:49:46;;;;;;;42.83;33.60;;;;;;;;;;5086936;28;24390;-48
2022/08/20 11:52:11;;;;;;;34.13;28.40;;;;;;;;;;5086652;28;24406;-48
2022/08/20 11:54:39;;;;;;;39.35;31.00;;;;;;;;;;5086967;28;24401;-49
2022/08/20 11:57:04;;;;;;;39.78;31.85;;;;;;;;;;5086581;28;24441;-45
2022/08/20 11:59:29;;;;;;;36.55;29.15;;;;;;;;;;5087050;28;24936;-46
2022/08/20 12:01:56;;;;;;;36.75;30.60;;;;;;;;;;5086315;28;24544;-47
2022/08/20 12:04:21;;;;;;;42.00;31.57;;;;;;;;;;5086241;28;24382;-47
2022/08/20 12:06:46;;;;;;;43.00;33.40;;;;;;;;;;5086684;28;24591;-46
2022/08/20 12:09:12;;;;;;;37.80;30.50;;;;;;;;;;5086396;28;24390;-47
2022/08/20 12:11:37;;;;;;;36.60;31.30;;;;;;;;;;5086635;28;24784;-46
2022/08/20 12:14:02;;;;;;;38.85;32.50;;;;;;;;;;5086476;28;24493;-47
2022/08/20 12:16:27;;;;;;;38.10;30.30;;;;;;;;;;5086789;28;24426;-46
2022/08/20 12:18:52;;;;;;;38.53;31.93;;;;;;;;;;5068245;28;24505;-47
2022/08/20 12:21:18;;;;;;;34.00;29.50;;;;;;;;;;5086614;28;24398;-46
2022/08/20 12:23:44;;;;;;;37.33;31.63;;;;;;;;;;5085739;28;24948;-46
2022/08/20 12:26:09;;;;;;;35.73;31.30;;;;;;;;;;5086804;28;24405;-46
2022/08/20 12:28:34;;;;;;;36.03;29.23;;;;;;;;;;5086496;28;24398;-46
2022/08/20 12:30:59;;;;;;;39.85;33.10;;;;;;;;;;5086393;28;24442;-46
2022/08/20 12:33:24;;;;;;;37.50;30.33;;;;;;;;;;5083206;28;24426;-46
2022/08/20 12:35:50;;;;;;;33.03;28.73;;;;;;;;;;5086202;28;24520;-47
2022/08/20 12:38:15;;;;;;;32.40;28.77;;;;;;;;;;5086236;28;24479;-47
2022/08/20 12:40:41;;;;;;;32.40;28.77;;;;;;;;;;5084897;28;24394;-47
2022/08/20 12:43:07;;;;;;;37.90;30.50;;;;;;;;;;5086403;28;24803;-46
2022/08/20 12:45:32;;;;;;;33.67;28.15;;;;;;;;;;5086451;28;24485;-48
2022/08/20 12:48:02;;;;;;;30.90;27.60;;;;;;;;;;5086154;28;24410;-47
2022/08/20 12:50:27;;;;;;;33.70;29.48;;;;;;;;;;5090369;28;24435;-47
2022/08/20 12:52:53;;;;;;;30.57;27.23;;;;;;;;;;5089757;28;24387;-46
2022/08/20 12:55:18;;;;;;;31.70;28.27;;;;;;;;;;5090054;28;24551;-47
2022/08/20 12:57:51;;;;;;;30.37;27.17;;;;;;;;;;5072467;28;24434;-47
2022/08/20 13:00:20;;;;;;;32.30;28.80;;;;;;;;;;5070080;28;24397;-46
2022/08/20 13:02:45;;;;;;;31.50;27.65;;;;;;;;;;5069444;28;24513;-46
2022/08/20 13:05:11;;;;;;;27.03;24.30;;;;;;;;;;5069742;28;24692;-47
2022/08/20 13:07:37;;;;;;;32.33;27.02;;;;;;;;;;5069462;28;24417;-48
2022/08/20 13:10:03;;;;;;;31.60;27.98;;;;;;;;;;5069569;28;24757;-47
2022/08/20 13:12:28;;;;;;;30.70;27.48;;;;;;;;;;5067614;28;24402;-47
2022/08/20 13:14:53;;;;;;;28.97;25.87;;;;;;;;;;5069413;28;24800;-48
2022/08/20 13:17:19;;;;;;;30.95;27.48;;;;;;;;;;5069548;28;24948;-48
2022/08/20 13:19:44;;;;;;;29.50;26.07;;;;;;;;;;5069503;28;24497;-46
2022/08/20 13:22:10;;;;;;;31.80;28.10;;;;;;;;;;5069276;28;24921;-47
2022/08/20 13:24:36;;;;;;;30.83;27.00;;;;;;;;;;5087261;28;24903;-46
2022/08/20 13:27:15;;;;;;;30.73;26.40;;;;;;;;;;5089814;28;24744;-46
2022/08/20 13:29:47;;;;;;;29.75;26.25;;;;;;;;;;5089581;28;24426;-46
2022/08/20 13:32:12;;;;;;;30.53;25.93;;;;;;;;;;5089345;28;24401;-46
2022/08/20 13:34:38;;;;;;;26.93;24.13;;;;;;;;;;5089588;28;24440;-46
2022/08/20 13:37:10;;;;;;;29.47;26.27;;;;;;;;;;5089647;28;24422;-47
2022/08/20 13:39:37;;;;;;;27.90;25.00;;;;;;;;;;5071353;28;24909;-46
2022/08/20 13:42:02;;;;;;;26.48;23.70;;;;;;;;;;5089086;28;24436;-46
2022/08/20 13:44:27;;;;;;;27.30;24.40;;;;;;;;;;5089502;28;24398;-46
2022/08/20 13:46:53;;;;;;;26.87;24.07;;;;;;;;;;5089148;28;24807;-46
2022/08/20 13:49:18;;;;;;;29.00;26.10;;;;;;;;;;5089183;28;24907;-47
2022/08/20 13:51:43;;;;;;;26.77;23.98;;;;;;;;;;5088998;28;25186;-47
2022/08/20 13:54:08;;;;;;;20.88;18.98;;;;;;;;;;5089085;28;24386;-47
2022/08/20 13:56:33;;;;;;;21.20;19.10;;;;;;;;;;5088869;28;24426;-46
2022/08/20 13:58:58;;;;;;;20.58;18.48;;;;;;;;;;5089065;28;24391;-46
2022/08/20 14:01:23;;;;;;;20.00;18.00;;;;;;;;;;5087678;28;24908;-46
2022/08/20 14:03:48;;;;;;;20.00;18.00;;;;;;;;;;5088705;28;24437;-46
2022/08/20 14:06:14;;;;;;;21.30;19.20;;;;;;;;;;5088658;28;24402;-46
2022/08/20 14:08:39;;;;;;;21.98;19.77;;;;;;;;;;5088956;28;24855;-46
2022/08/20 14:11:04;;;;;;;23.25;20.75;;;;;;;;;;5088707;28;24471;-47
2022/08/20 14:13:29;;;;;;;25.07;22.40;;;;;;;;;;5088490;28;24437;-46
2022/08/20 14:15:55;;;;;;;25.63;22.83;;;;;;;;;;5088612;28;24406;-46
2022/08/20 14:18:20;;;;;;;24.30;21.70;;;;;;;;;;5088578;28;24783;-45
2022/08/20 14:20:45;;;;;;;26.10;23.40;;;;;;;;;;5088569;28;24444;-45
2022/08/20 14:23:11;;;;;;;27.45;24.50;;;;;;;;;;5088347;28;24964;-46